sensor_id;sensor_type;location;lat;lon;timestamp;temperature;humidity
6518;DHT22;3292;48.944;9.240;2024-03-06T00:00:29;6.00;99.90
6518;DHT22;3292;48.944;9.240;2024-03-06T00:02:58;6.10;99.90
6518;DHT22;3292;48.944;9.240;2024-03-06T00:05:25;6.10;99.90
6518;DHT22;3292;48.944;9.240;2024-03-06T00:07:52;6.10;99.90
6518;DHT22;3292;48.944;9.240;2024-03-06T00:10:20;6.10;99.90
6518;DHT22;3292;48.944;9.240;2024-03-06T00:12:47;6.10;99.90
6518;DHT22;3292;48.944;9.240;2024-03-06T00:15:14;6.00;99.90
6518;DHT22;3292;48.944;9.240;2024-03-06T00:17:41;6.00;99.90
6518;DHT22;3292;48.944;9.240;2024-03-06T00:20:08;6.00;99.90
6518;DHT22;3292;48.944;9.240;2024-03-06T00:22:36;6.00;99.90
6518;DHT22;3292;48.944;9.240;2024-03-06T00:25:03;6.00;99.90
6518;DHT22;3292;48.944;9.240;2024-03-06T00:27:32;6.00;99.90
6518;DHT22;3292;48.944;9.240;2024-03-06T00:29:59;6.00;99.90
6518;DHT22;3292;48.944;9.240;2024-03-06T00:32:25;6.00;99.90
6518;DHT22;3292;48.944;9.240;2024-03-06T00:34:54;6.00;99.90
6518;DHT22;3292;48.944;9.240;2024-03-06T00:37:21;5.90;99.90
6518;DHT22;3292;48.944;9.240;2024-03-06T00:39:47;5.90;99.90
6518;DHT22;3292;48.944;9.240;2024-03-06T00:42:14;5.90;99.90
6518;DHT22;3292;48.944;9.240;2024-03-06T00:44:42;5.90;99.90
6518;DHT22;3292;48.944;9.240;2024-03-06T00:47:09;5.90;99.90
6518;DHT22;3292;48.944;9.240;2024-03-06T00:49:36;5.90;99.90
6518;DHT22;3292;48.944;9.240;2024-03-06T00:52:07;5.90;99.90
6518;DHT22;3292;48.944;9.240;2024-03-06T00:54:36;5.90;99.90
6518;DHT22;3292;48.944;9.240;2024-03-06T00:57:03;5.90;99.90
6518;DHT22;3292;48.944;9.240;2024-03-06T00:59:29;5.90;99.90
6518;DHT22;3292;48.944;9.240;2024-03-06T01:01:57;5.80;99.90
6518;DHT22;3292;48.944;9.240;2024-03-06T01:04:24;5.80;99.90
6518;DHT22;3292;48.944;9.240;2024-03-06T01:06:51;5.80;99.90
6518;DHT22;3292;48.944;9.240;2024-03-06T01:09:18;5.90;99.90
6518;DHT22;3292;48.944;9.240;2024-03-06T01:11:45;5.80;99.90
6518;DHT22;3292;48.944;9.240;2024-03-06T01:14:13;5.80;99.90
6518;DHT22;3292;48.944;9.240;2024-03-06T01:16:40;5.80;99.90
6518;DHT22;3292;48.944;9.240;2024-03-06T01:19:08;5.70;99.90
6518;DHT22;3292;48.944;9.240;2024-03-06T01:21:35;5.70;99.90
6518;DHT22;3292;48.944;9.240;2024-03-06T01:24:02;5.70;99.90
6518;DHT22;3292;48.944;9.240;2024-03-06T01:26:29;5.70;99.90
6518;DHT22;3292;48.944;9.240;2024-03-06T01:28:55;5.70;99.90
6518;DHT22;3292;48.944;9.240;2024-03-06T01:31:22;5.70;99.90
6518;DHT22;3292;48.944;9.240;2024-03-06T01:33:49;5.70;99.90
6518;DHT22;3292;48.944;9.240;2024-03-06T01:36:17;5.80;99.90
6518;DHT22;3292;48.944;9.240;2024-03-06T01:38:44;5.80;99.90
6518;DHT22;3292;48.944;9.240;2024-03-06T01:41:12;5.80;99.90
6518;DHT22;3292;48.944;9.240;2024-03-06T01:43:38;5.80;99.90
6518;DHT22;3292;48.944;9.240;2024-03-06T01:46:06;5.70;99.90
6518;DHT22;3292;48.944;9.240;2024-03-06T01:48:33;5.70;99.90
6518;DHT22;3292;48.944;9.240;2024-03-06T01:51:02;5.60;99.90
6518;DHT22;3292;48.944;9.240;2024-03-06T01:53:32;5.60;99.90
6518;DHT22;3292;48.944;9.240;2024-03-06T01:56:00;5.60;99.90
6518;DHT22;3292;48.944;9.240;2024-03-06T01:58:27;5.60;99.90
6518;DHT22;3292;48.944;9.240;2024-03-06T02:00:54;5.60;99.90
6518;DHT22;3292;48.944;9.240;2024-03-06T02:03:21;5.60;99.90
6518;DHT22;3292;48.944;9.240;2024-03-06T02:05:48;5.60;99.90
6518;DHT22;3292;48.944;9.240;2024-03-06T02:08:16;5.60;99.90
6518;DHT22;3292;48.944;9.240;2024-03-06T02:10:45;5.60;99.90
6518;DHT22;3292;48.944;9.240;2024-03-06T02:13:13;5.60;99.90
6518;DHT22;3292;48.944;9.240;2024-03-06T02:15:40;5.60;99.90
6518;DHT22;3292;48.944;9.240;2024-03-06T02:18:07;5.60;99.90
6518;DHT22;3292;48.944;9.240;2024-03-06T02:20:38;5.60;99.90
6518;DHT22;3292;48.944;9.240;2024-03-06T02:23:05;5.60;99.90
6518;DHT22;3292;48.944;9.240;2024-03-06T02:25:33;5.60;99.90
6518;DHT22;3292;48.944;9.240;2024-03-06T02:27:59;5.50;99.90
6518;DHT22;3292;48.944;9.240;2024-03-06T02:30:26;5.40;99.90
6518;DHT22;3292;48.944;9.240;2024-03-06T02:32:53;5.40;99.90
6518;DHT22;3292;48.944;9.240;2024-03-06T02:35:20;5.40;99.90
6518;DHT22;3292;48.944;9.240;2024-03-06T02:37:48;5.40;99.90
6518;DHT22;3292;48.944;9.240;2024-03-06T02:40:15;5.40;99.90
6518;DHT22;3292;48.944;9.240;2024-03-06T02:42:42;5.40;99.90
6518;DHT22;3292;48.944;9.240;2024-03-06T02:45:09;5.40;99.90
6518;DHT22;3292;48.944;9.240;2024-03-06T02:47:36;5.40;99.90
6518;DHT22;3292;48.944;9.240;2024-03-06T02:50:03;5.40;99.90
6518;DHT22;3292;48.944;9.240;2024-03-06T02:52:30;5.40;99.90
6518;DHT22;3292;48.944;9.240;2024-03-06T02:54:58;5.40;99.90
6518;DHT22;3292;48.944;9.240;2024-03-06T02:57:27;5.40;99.90
6518;DHT22;3292;48.944;9.240;2024-03-06T02:59:55;5.40;99.90
6518;DHT22;3292;48.944;9.240;2024-03-06T03:02:22;5.40;99.90
6518;DHT22;3292;48.944;9.240;2024-03-06T03:04:49;5.40;99.90
6518;DHT22;3292;48.944;9.240;2024-03-06T03:07:16;5.40;99.90
6518;DHT22;3292;48.944;9.240;2024-03-06T03:09:42;5.40;99.90
6518;DHT22;3292;48.944;9.240;2024-03-06T03:12:11;5.40;99.90
6518;DHT22;3292;48.944;9.240;2024-03-06T03:14:39;5.40;99.90
6518;DHT22;3292;48.944;9.240;2024-03-06T03:17:07;5.40;99.90
6518;DHT22;3292;48.944;9.240;2024-03-06T03:19:34;5.40;99.90
6518;DHT22;3292;48.944;9.240;2024-03-06T03:22:01;5.30;99.90
6518;DHT22;3292;48.944;9.240;2024-03-06T03:24:29;5.30;99.90
6518;DHT22;3292;48.944;9.240;2024-03-06T03:26:56;5.30;99.90
6518;DHT22;3292;48.944;9.240;2024-03-06T03:29:25;5.30;99.90
6518;DHT22;3292;48.944;9.240;2024-03-06T03:31:51;5.30;99.90
6518;DHT22;3292;48.944;9.240;2024-03-06T03:34:18;5.30;99.90
6518;DHT22;3292;48.944;9.240;2024-03-06T03:36:46;5.30;99.90
6518;DHT22;3292;48.944;9.240;2024-03-06T03:39:14;5.30;99.90
6518;DHT22;3292;48.944;9.240;2024-03-06T03:41:45;5.30;99.90
6518;DHT22;3292;48.944;9.240;2024-03-06T03:44:12;5.30;99.90
6518;DHT22;3292;48.944;9.240;2024-03-06T03:46:40;5.30;99.90
6518;DHT22;3292;48.944;9.240;2024-03-06T03:49:07;5.30;99.90
6518;DHT22;3292;48.944;9.240;2024-03-06T03:51:35;5.30;99.90
6518;DHT22;3292;48.944;9.240;2024-03-06T03:54:02;5.30;99.90
6518;DHT22;3292;48.944;9.240;2024-03-06T03:56:29;5.30;99.90
6518;DHT22;3292;48.944;9.240;2024-03-06T03:58:56;5.20;99.90
6518;DHT22;3292;48.944;9.240;2024-03-06T04:01:23;5.20;99.90
6518;DHT22;3292;48.944;9.240;2024-03-06T04:03:52;5.20;99.90
6518;DHT22;3292;48.944;9.240;2024-03-06T04:06:18;5.20;99.90
6518;DHT22;3292;48.944;9.240;2024-03-06T04:08:45;5.20;99.90
6518;DHT22;3292;48.944;9.240;2024-03-06T04:11:12;5.20;99.90
6518;DHT22;3292;48.944;9.240;2024-03-06T04:13:39;5.20;99.90
6518;DHT22;3292;48.944;9.240;2024-03-06T04:16:06;5.20;99.90
6518;DHT22;3292;48.944;9.240;2024-03-06T04:18:33;5.20;99.90
6518;DHT22;3292;48.944;9.240;2024-03-06T04:21:04;5.20;99.90
6518;DHT22;3292;48.944;9.240;2024-03-06T04:23:30;5.20;99.90
6518;DHT22;3292;48.944;9.240;2024-03-06T04:25:58;5.20;99.90
6518;DHT22;3292;48.944;9.240;2024-03-06T04:28:25;5.30;99.90
6518;DHT22;3292;48.944;9.240;2024-03-06T04:30:52;5.30;99.90
6518;DHT22;3292;48.944;9.240;2024-03-06T04:33:19;5.30;99.90
6518;DHT22;3292;48.944;9.240;2024-03-06T04:35:46;5.30;99.90
6518;DHT22;3292;48.944;9.240;2024-03-06T04:38:14;5.30;99.90
6518;DHT22;3292;48.944;9.240;2024-03-06T04:40:41;5.30;99.90
6518;DHT22;3292;48.944;9.240;2024-03-06T04:43:08;5.30;99.90
6518;DHT22;3292;48.944;9.240;2024-03-06T04:45:35;5.40;99.90
6518;DHT22;3292;48.944;9.240;2024-03-06T04:48:02;5.40;99.90
6518;DHT22;3292;48.944;9.240;2024-03-06T04:50:28;5.40;99.90
6518;DHT22;3292;48.944;9.240;2024-03-06T04:52:55;5.30;99.90
6518;DHT22;3292;48.944;9.240;2024-03-06T04:55:24;5.30;99.90
6518;DHT22;3292;48.944;9.240;2024-03-06T04:57:52;5.30;99.90
6518;DHT22;3292;48.944;9.240;2024-03-06T05:00:19;5.30;99.90
6518;DHT22;3292;48.944;9.240;2024-03-06T05:02:46;5.30;99.90
6518;DHT22;3292;48.944;9.240;2024-03-06T05:05:15;5.30;99.90
6518;DHT22;3292;48.944;9.240;2024-03-06T05:07:41;5.30;99.90
6518;DHT22;3292;48.944;9.240;2024-03-06T05:10:09;5.30;99.90
6518;DHT22;3292;48.944;9.240;2024-03-06T05:12:37;5.30;99.90
6518;DHT22;3292;48.944;9.240;2024-03-06T05:15:05;5.20;99.90
6518;DHT22;3292;48.944;9.240;2024-03-06T05:17:32;5.30;99.90
6518;DHT22;3292;48.944;9.240;2024-03-06T05:19:59;5.30;99.90
6518;DHT22;3292;48.944;9.240;2024-03-06T05:22:26;5.30;99.90
6518;DHT22;3292;48.944;9.240;2024-03-06T05:24:53;5.30;99.90
6518;DHT22;3292;48.944;9.240;2024-03-06T05:27:20;5.30;99.90
6518;DHT22;3292;48.944;9.240;2024-03-06T05:29:48;5.30;99.90
6518;DHT22;3292;48.944;9.240;2024-03-06T05:32:15;5.30;99.90
6518;DHT22;3292;48.944;9.240;2024-03-06T05:34:42;5.40;99.90
6518;DHT22;3292;48.944;9.240;2024-03-06T05:37:09;5.30;99.90
6518;DHT22;3292;48.944;9.240;2024-03-06T05:39:36;5.30;99.90
6518;DHT22;3292;48.944;9.240;2024-03-06T05:42:04;5.40;99.90
6518;DHT22;3292;48.944;9.240;2024-03-06T05:44:31;5.40;99.90
6518;DHT22;3292;48.944;9.240;2024-03-06T05:47:00;5.40;99.90
6518;DHT22;3292;48.944;9.240;2024-03-06T05:49:27;5.40;99.90
6518;DHT22;3292;48.944;9.240;2024-03-06T05:51:55;5.40;99.90
6518;DHT22;3292;48.944;9.240;2024-03-06T05:54:22;5.40;99.90
6518;DHT22;3292;48.944;9.240;2024-03-06T05:56:50;5.30;99.90
6518;DHT22;3292;48.944;9.240;2024-03-06T05:59:19;5.30;99.90
6518;DHT22;3292;48.944;9.240;2024-03-06T06:01:46;5.30;99.90
6518;DHT22;3292;48.944;9.240;2024-03-06T06:04:17;5.30;99.90
6518;DHT22;3292;48.944;9.240;2024-03-06T06:06:43;5.30;99.90
6518;DHT22;3292;48.944;9.240;2024-03-06T06:09:10;5.30;99.90
6518;DHT22;3292;48.944;9.240;2024-03-06T06:11:41;5.30;99.90
6518;DHT22;3292;48.944;9.240;2024-03-06T06:14:08;5.30;99.90
6518;DHT22;3292;48.944;9.240;2024-03-06T06:16:36;5.30;99.90
6518;DHT22;3292;48.944;9.240;2024-03-06T06:19:03;5.30;99.90
6518;DHT22;3292;48.944;9.240;2024-03-06T06:21:32;5.30;99.90
6518;DHT22;3292;48.944;9.240;2024-03-06T06:24:01;5.30;99.90
6518;DHT22;3292;48.944;9.240;2024-03-06T06:26:29;5.30;99.90
6518;DHT22;3292;48.944;9.240;2024-03-06T06:28:56;5.30;99.90
6518;DHT22;3292;48.944;9.240;2024-03-06T06:31:23;5.30;99.90
6518;DHT22;3292;48.944;9.240;2024-03-06T06:33:51;5.30;99.90
6518;DHT22;3292;48.944;9.240;2024-03-06T06:36:18;5.30;99.90
6518;DHT22;3292;48.944;9.240;2024-03-06T06:38:46;5.30;99.90
6518;DHT22;3292;48.944;9.240;2024-03-06T06:41:13;5.30;99.90
6518;DHT22;3292;48.944;9.240;2024-03-06T06:43:40;5.30;99.90
6518;DHT22;3292;48.944;9.240;2024-03-06T06:46:07;5.30;99.90
6518;DHT22;3292;48.944;9.240;2024-03-06T06:48:34;5.30;99.90
6518;DHT22;3292;48.944;9.240;2024-03-06T06:51:02;5.30;99.90
6518;DHT22;3292;48.944;9.240;2024-03-06T06:53:28;5.30;99.90
6518;DHT22;3292;48.944;9.240;2024-03-06T06:55:57;5.30;99.90
6518;DHT22;3292;48.944;9.240;2024-03-06T06:58:24;5.30;99.90
6518;DHT22;3292;48.944;9.240;2024-03-06T07:00:52;5.30;99.90
6518;DHT22;3292;48.944;9.240;2024-03-06T07:03:19;5.30;99.90
6518;DHT22;3292;48.944;9.240;2024-03-06T07:05:47;5.30;99.90
6518;DHT22;3292;48.944;9.240;2024-03-06T07:08:14;5.30;99.90
6518;DHT22;3292;48.944;9.240;2024-03-06T07:10:40;5.30;99.90
6518;DHT22;3292;48.944;9.240;2024-03-06T07:13:08;5.30;99.90
6518;DHT22;3292;48.944;9.240;2024-03-06T07:15:36;5.40;99.90
6518;DHT22;3292;48.944;9.240;2024-03-06T07:18:03;5.40;99.90
6518;DHT22;3292;48.944;9.240;2024-03-06T07:20:30;5.30;99.90
6518;DHT22;3292;48.944;9.240;2024-03-06T07:22:57;5.30;99.90
6518;DHT22;3292;48.944;9.240;2024-03-06T07:25:24;5.40;99.90
6518;DHT22;3292;48.944;9.240;2024-03-06T07:27:51;5.40;99.90
6518;DHT22;3292;48.944;9.240;2024-03-06T07:30:19;5.40;99.90
6518;DHT22;3292;48.944;9.240;2024-03-06T07:32:48;5.40;99.90
6518;DHT22;3292;48.944;9.240;2024-03-06T07:35:14;5.40;99.90
6518;DHT22;3292;48.944;9.240;2024-03-06T07:37:43;5.40;99.90
6518;DHT22;3292;48.944;9.240;2024-03-06T07:40:10;5.40;99.90
6518;DHT22;3292;48.944;9.240;2024-03-06T07:42:37;5.50;99.90
6518;DHT22;3292;48.944;9.240;2024-03-06T07:45:05;5.50;99.90
6518;DHT22;3292;48.944;9.240;2024-03-06T07:47:34;5.50;99.90
6518;DHT22;3292;48.944;9.240;2024-03-06T07:50:04;5.60;99.90
6518;DHT22;3292;48.944;9.240;2024-03-06T07:52:31;5.60;99.90
6518;DHT22;3292;48.944;9.240;2024-03-06T07:54:58;5.70;99.90
6518;DHT22;3292;48.944;9.240;2024-03-06T07:57:25;5.80;99.90
6518;DHT22;3292;48.944;9.240;2024-03-06T07:59:52;5.80;99.90
6518;DHT22;3292;48.944;9.240;2024-03-06T08:02:20;5.80;99.90
6518;DHT22;3292;48.944;9.240;2024-03-06T08:04:48;5.80;99.90
6518;DHT22;3292;48.944;9.240;2024-03-06T08:07:15;5.80;99.90
6518;DHT22;3292;48.944;9.240;2024-03-06T08:09:42;5.70;99.90
6518;DHT22;3292;48.944;9.240;2024-03-06T08:12:09;5.80;99.90
6518;DHT22;3292;48.944;9.240;2024-03-06T08:14:35;5.90;99.90
6518;DHT22;3292;48.944;9.240;2024-03-06T08:17:02;6.00;99.90
6518;DHT22;3292;48.944;9.240;2024-03-06T08:19:29;6.20;99.90
6518;DHT22;3292;48.944;9.240;2024-03-06T08:21:57;6.20;99.90
6518;DHT22;3292;48.944;9.240;2024-03-06T08:24:24;6.10;99.90
6518;DHT22;3292;48.944;9.240;2024-03-06T08:26:51;6.10;99.90
6518;DHT22;3292;48.944;9.240;2024-03-06T08:29:18;6.10;99.90
6518;DHT22;3292;48.944;9.240;2024-03-06T08:31:44;6.00;99.90
6518;DHT22;3292;48.944;9.240;2024-03-06T08:34:11;6.00;99.90
6518;DHT22;3292;48.944;9.240;2024-03-06T08:36:38;6.00;99.90
6518;DHT22;3292;48.944;9.240;2024-03-06T08:39:06;6.10;99.90
6518;DHT22;3292;48.944;9.240;2024-03-06T08:41:38;6.10;99.90
6518;DHT22;3292;48.944;9.240;2024-03-06T08:44:05;6.10;99.90
6518;DHT22;3292;48.944;9.240;2024-03-06T08:46:31;6.10;99.90
6518;DHT22;3292;48.944;9.240;2024-03-06T08:48:59;6.10;99.90
6518;DHT22;3292;48.944;9.240;2024-03-06T08:51:26;6.20;99.90
6518;DHT22;3292;48.944;9.240;2024-03-06T08:53:53;6.20;99.90
6518;DHT22;3292;48.944;9.240;2024-03-06T08:56:21;6.30;99.90
6518;DHT22;3292;48.944;9.240;2024-03-06T08:58:48;6.20;99.90
6518;DHT22;3292;48.944;9.240;2024-03-06T09:01:14;6.20;99.90
6518;DHT22;3292;48.944;9.240;2024-03-06T09:03:41;6.10;99.90
6518;DHT22;3292;48.944;9.240;2024-03-06T09:06:08;6.20;99.90
6518;DHT22;3292;48.944;9.240;2024-03-06T09:08:36;6.20;99.90
6518;DHT22;3292;48.944;9.240;2024-03-06T09:11:03;6.30;99.90
6518;DHT22;3292;48.944;9.240;2024-03-06T09:13:32;6.30;99.90
6518;DHT22;3292;48.944;9.240;2024-03-06T09:15:59;6.30;99.90
6518;DHT22;3292;48.944;9.240;2024-03-06T09:18:25;6.30;99.90
6518;DHT22;3292;48.944;9.240;2024-03-06T09:20:52;6.30;99.90
6518;DHT22;3292;48.944;9.240;2024-03-06T09:23:19;6.40;99.90
6518;DHT22;3292;48.944;9.240;2024-03-06T09:25:46;6.40;99.90
6518;DHT22;3292;48.944;9.240;2024-03-06T09:28:13;6.40;99.90
6518;DHT22;3292;48.944;9.240;2024-03-06T09:30:42;6.40;99.90
6518;DHT22;3292;48.944;9.240;2024-03-06T09:33:08;6.40;99.90
6518;DHT22;3292;48.944;9.240;2024-03-06T09:35:35;6.50;99.90
6518;DHT22;3292;48.944;9.240;2024-03-06T09:38:02;6.40;99.90
6518;DHT22;3292;48.944;9.240;2024-03-06T09:40:30;6.40;99.90
6518;DHT22;3292;48.944;9.240;2024-03-06T09:42:57;6.40;99.90
6518;DHT22;3292;48.944;9.240;2024-03-06T09:45:24;6.30;99.90
6518;DHT22;3292;48.944;9.240;2024-03-06T09:47:52;6.40;99.90
6518;DHT22;3292;48.944;9.240;2024-03-06T09:50:23;6.40;99.90
6518;DHT22;3292;48.944;9.240;2024-03-06T09:52:51;6.40;99.90
6518;DHT22;3292;48.944;9.240;2024-03-06T09:55:20;6.50;99.90
6518;DHT22;3292;48.944;9.240;2024-03-06T09:57:46;6.50;99.90
6518;DHT22;3292;48.944;9.240;2024-03-06T10:00:14;6.50;99.90
6518;DHT22;3292;48.944;9.240;2024-03-06T10:02:48;6.60;99.90
6518;DHT22;3292;48.944;9.240;2024-03-06T10:05:24;6.60;99.90
6518;DHT22;3292;48.944;9.240;2024-03-06T10:07:52;6.60;99.90
6518;DHT22;3292;48.944;9.240;2024-03-06T10:10:20;6.70;99.90
6518;DHT22;3292;48.944;9.240;2024-03-06T10:12:48;6.70;99.90
6518;DHT22;3292;48.944;9.240;2024-03-06T10:15:15;6.80;99.90
6518;DHT22;3292;48.944;9.240;2024-03-06T10:17:42;6.90;99.90
6518;DHT22;3292;48.944;9.240;2024-03-06T10:20:18;6.90;99.90
6518;DHT22;3292;48.944;9.240;2024-03-06T10:22:49;6.90;99.90
6518;DHT22;3292;48.944;9.240;2024-03-06T10:25:18;6.80;99.90
6518;DHT22;3292;48.944;9.240;2024-03-06T10:27:46;6.80;99.90
6518;DHT22;3292;48.944;9.240;2024-03-06T10:30:14;6.90;99.90
6518;DHT22;3292;48.944;9.240;2024-03-06T10:32:41;6.90;99.90
6518;DHT22;3292;48.944;9.240;2024-03-06T10:35:17;6.80;99.90
6518;DHT22;3292;48.944;9.240;2024-03-06T10:37:45;6.90;99.90
6518;DHT22;3292;48.944;9.240;2024-03-06T10:40:15;6.80;99.90
6518;DHT22;3292;48.944;9.240;2024-03-06T10:42:45;6.90;99.90
6518;DHT22;3292;48.944;9.240;2024-03-06T10:45:14;6.90;99.90
6518;DHT22;3292;48.944;9.240;2024-03-06T10:47:46;7.00;99.90
6518;DHT22;3292;48.944;9.240;2024-03-06T10:50:14;6.90;99.90
6518;DHT22;3292;48.944;9.240;2024-03-06T10:52:42;7.00;99.90
6518;DHT22;3292;48.944;9.240;2024-03-06T10:55:13;7.00;99.90
6518;DHT22;3292;48.944;9.240;2024-03-06T10:57:43;7.00;99.90
6518;DHT22;3292;48.944;9.240;2024-03-06T11:00:11;7.10;99.90
6518;DHT22;3292;48.944;9.240;2024-03-06T11:02:45;7.20;99.90
6518;DHT22;3292;48.944;9.240;2024-03-06T11:05:14;7.20;99.90
6518;DHT22;3292;48.944;9.240;2024-03-06T11:07:41;7.20;99.90
6518;DHT22;3292;48.944;9.240;2024-03-06T11:10:09;7.10;99.90
6518;DHT22;3292;48.944;9.240;2024-03-06T11:12:43;7.20;99.90
6518;DHT22;3292;48.944;9.240;2024-03-06T11:15:14;7.40;99.90
6518;DHT22;3292;48.944;9.240;2024-03-06T11:17:41;7.40;99.90
6518;DHT22;3292;48.944;9.240;2024-03-06T11:20:12;7.40;99.90
6518;DHT22;3292;48.944;9.240;2024-03-06T11:23:02;7.40;99.90
6518;DHT22;3292;48.944;9.240;2024-03-06T11:26:07;7.30;99.90
6518;DHT22;3292;48.944;9.240;2024-03-06T11:28:37;7.50;99.90
6518;DHT22;3292;48.944;9.240;2024-03-06T11:31:07;7.50;99.90
6518;DHT22;3292;48.944;9.240;2024-03-06T11:33:37;7.60;99.90
6518;DHT22;3292;48.944;9.240;2024-03-06T11:36:19;7.60;99.90
6518;DHT22;3292;48.944;9.240;2024-03-06T11:38:47;7.70;99.90
6518;DHT22;3292;48.944;9.240;2024-03-06T11:41:14;7.60;99.90
6518;DHT22;3292;48.944;9.240;2024-03-06T11:43:44;7.50;99.90
6518;DHT22;3292;48.944;9.240;2024-03-06T11:46:12;7.30;99.90
6518;DHT22;3292;48.944;9.240;2024-03-06T11:48:38;7.30;99.90
6518;DHT22;3292;48.944;9.240;2024-03-06T11:51:06;7.30;99.90
6518;DHT22;3292;48.944;9.240;2024-03-06T11:53:33;7.30;99.90
6518;DHT22;3292;48.944;9.240;2024-03-06T11:56:02;7.20;99.90
6518;DHT22;3292;48.944;9.240;2024-03-06T11:58:32;7.20;99.90
6518;DHT22;3292;48.944;9.240;2024-03-06T12:01:01;7.30;99.90
6518;DHT22;3292;48.944;9.240;2024-03-06T12:03:30;7.30;99.90
6518;DHT22;3292;48.944;9.240;2024-03-06T12:05:58;7.40;99.90
6518;DHT22;3292;48.944;9.240;2024-03-06T12:08:24;7.40;99.90
6518;DHT22;3292;48.944;9.240;2024-03-06T12:10:52;7.50;99.90
6518;DHT22;3292;48.944;9.240;2024-03-06T12:13:21;7.40;99.90
6518;DHT22;3292;48.944;9.240;2024-03-06T12:15:48;7.40;99.90
6518;DHT22;3292;48.944;9.240;2024-03-06T12:18:18;7.40;99.90
6518;DHT22;3292;48.944;9.240;2024-03-06T12:20:45;7.40;99.90
6518;DHT22;3292;48.944;9.240;2024-03-06T12:23:19;7.40;99.90
6518;DHT22;3292;48.944;9.240;2024-03-06T12:25:47;7.40;99.90
6518;DHT22;3292;48.944;9.240;2024-03-06T12:28:14;7.50;99.90
6518;DHT22;3292;48.944;9.240;2024-03-06T12:30:42;7.40;99.90
6518;DHT22;3292;48.944;9.240;2024-03-06T12:33:10;7.40;99.90
6518;DHT22;3292;48.944;9.240;2024-03-06T12:35:41;7.40;99.90
6518;DHT22;3292;48.944;9.240;2024-03-06T12:38:12;7.30;99.90
6518;DHT22;3292;48.944;9.240;2024-03-06T12:40:39;7.40;99.90
6518;DHT22;3292;48.944;9.240;2024-03-06T12:43:06;7.30;99.90
6518;DHT22;3292;48.944;9.240;2024-03-06T12:45:34;7.30;99.90
6518;DHT22;3292;48.944;9.240;2024-03-06T12:48:01;7.30;99.90
6518;DHT22;3292;48.944;9.240;2024-03-06T12:50:30;7.30;99.90
6518;DHT22;3292;48.944;9.240;2024-03-06T12:52:58;7.30;99.90
6518;DHT22;3292;48.944;9.240;2024-03-06T12:55:25;7.30;99.90
6518;DHT22;3292;48.944;9.240;2024-03-06T12:57:52;7.30;99.90
6518;DHT22;3292;48.944;9.240;2024-03-06T13:00:19;7.30;99.90
6518;DHT22;3292;48.944;9.240;2024-03-06T13:02:46;7.20;99.90
6518;DHT22;3292;48.944;9.240;2024-03-06T13:05:13;7.30;99.90
6518;DHT22;3292;48.944;9.240;2024-03-06T13:07:39;7.20;99.90
6518;DHT22;3292;48.944;9.240;2024-03-06T13:10:10;7.30;99.90
6518;DHT22;3292;48.944;9.240;2024-03-06T13:12:37;7.20;99.90
6518;DHT22;3292;48.944;9.240;2024-03-06T13:15:04;7.20;99.90
6518;DHT22;3292;48.944;9.240;2024-03-06T13:17:33;7.30;99.90
6518;DHT22;3292;48.944;9.240;2024-03-06T13:19:59;7.30;99.90
6518;DHT22;3292;48.944;9.240;2024-03-06T13:22:26;7.20;99.90
6518;DHT22;3292;48.944;9.240;2024-03-06T13:24:53;7.20;99.90
6518;DHT22;3292;48.944;9.240;2024-03-06T13:27:21;7.30;99.90
6518;DHT22;3292;48.944;9.240;2024-03-06T13:29:48;7.30;99.90
6518;DHT22;3292;48.944;9.240;2024-03-06T13:32:16;7.20;99.90
6518;DHT22;3292;48.944;9.240;2024-03-06T13:34:43;7.30;99.90
6518;DHT22;3292;48.944;9.240;2024-03-06T13:37:10;7.30;99.90
6518;DHT22;3292;48.944;9.240;2024-03-06T13:39:37;7.30;99.90
6518;DHT22;3292;48.944;9.240;2024-03-06T13:42:04;7.30;99.90
6518;DHT22;3292;48.944;9.240;2024-03-06T13:44:35;7.20;99.90
6518;DHT22;3292;48.944;9.240;2024-03-06T13:47:02;7.20;99.90
6518;DHT22;3292;48.944;9.240;2024-03-06T13:49:39;7.20;99.90
6518;DHT22;3292;48.944;9.240;2024-03-06T13:52:07;7.10;99.90
6518;DHT22;3292;48.944;9.240;2024-03-06T13:54:37;7.20;99.90
6518;DHT22;3292;48.944;9.240;2024-03-06T13:57:04;7.10;99.90
6518;DHT22;3292;48.944;9.240;2024-03-06T13:59:31;7.20;99.90
6518;DHT22;3292;48.944;9.240;2024-03-06T14:02:00;7.20;99.90
6518;DHT22;3292;48.944;9.240;2024-03-06T14:04:27;7.10;99.90
6518;DHT22;3292;48.944;9.240;2024-03-06T14:06:53;7.00;99.90
6518;DHT22;3292;48.944;9.240;2024-03-06T14:09:22;7.00;99.90
6518;DHT22;3292;48.944;9.240;2024-03-06T14:11:50;7.00;99.90
6518;DHT22;3292;48.944;9.240;2024-03-06T14:14:17;7.10;99.90
6518;DHT22;3292;48.944;9.240;2024-03-06T14:16:44;7.00;99.90
6518;DHT22;3292;48.944;9.240;2024-03-06T14:19:13;7.00;99.90
6518;DHT22;3292;48.944;9.240;2024-03-06T14:21:40;7.00;99.90
6518;DHT22;3292;48.944;9.240;2024-03-06T14:24:06;7.00;99.90
6518;DHT22;3292;48.944;9.240;2024-03-06T14:26:34;7.00;99.90
6518;DHT22;3292;48.944;9.240;2024-03-06T14:29:01;7.00;99.90
6518;DHT22;3292;48.944;9.240;2024-03-06T14:31:31;7.00;99.90
6518;DHT22;3292;48.944;9.240;2024-03-06T14:33:58;7.00;99.90
6518;DHT22;3292;48.944;9.240;2024-03-06T14:36:26;6.90;99.90
6518;DHT22;3292;48.944;9.240;2024-03-06T14:38:53;6.90;99.90
6518;DHT22;3292;48.944;9.240;2024-03-06T14:41:20;6.90;99.90
6518;DHT22;3292;48.944;9.240;2024-03-06T14:43:47;6.90;99.90
6518;DHT22;3292;48.944;9.240;2024-03-06T14:46:14;6.90;99.90
6518;DHT22;3292;48.944;9.240;2024-03-06T14:48:41;6.90;99.90
6518;DHT22;3292;48.944;9.240;2024-03-06T14:51:08;6.90;99.90
6518;DHT22;3292;48.944;9.240;2024-03-06T14:53:36;6.90;99.90
6518;DHT22;3292;48.944;9.240;2024-03-06T14:56:04;6.90;99.90
6518;DHT22;3292;48.944;9.240;2024-03-06T14:58:31;7.00;99.90
6518;DHT22;3292;48.944;9.240;2024-03-06T15:00:58;7.00;99.90
6518;DHT22;3292;48.944;9.240;2024-03-06T15:03:25;6.90;99.90
6518;DHT22;3292;48.944;9.240;2024-03-06T15:05:52;7.00;99.90
6518;DHT22;3292;48.944;9.240;2024-03-06T15:08:19;7.00;99.90
6518;DHT22;3292;48.944;9.240;2024-03-06T15:10:47;7.00;99.90
6518;DHT22;3292;48.944;9.240;2024-03-06T15:13:14;7.00;99.90
6518;DHT22;3292;48.944;9.240;2024-03-06T15:15:42;7.00;99.90
6518;DHT22;3292;48.944;9.240;2024-03-06T15:18:08;7.00;99.90
6518;DHT22;3292;48.944;9.240;2024-03-06T15:20:35;7.10;99.90
6518;DHT22;3292;48.944;9.240;2024-03-06T15:23:03;7.10;99.90
6518;DHT22;3292;48.944;9.240;2024-03-06T15:25:29;7.10;99.90
6518;DHT22;3292;48.944;9.240;2024-03-06T15:27:58;7.10;99.90
6518;DHT22;3292;48.944;9.240;2024-03-06T15:30:24;7.00;99.90
6518;DHT22;3292;48.944;9.240;2024-03-06T15:32:52;7.00;99.90
6518;DHT22;3292;48.944;9.240;2024-03-06T15:35:19;7.00;99.90
6518;DHT22;3292;48.944;9.240;2024-03-06T15:37:46;7.00;99.90
6518;DHT22;3292;48.944;9.240;2024-03-06T15:40:14;7.00;99.90
6518;DHT22;3292;48.944;9.240;2024-03-06T15:42:40;7.10;99.90
6518;DHT22;3292;48.944;9.240;2024-03-06T15:45:11;7.10;99.90
6518;DHT22;3292;48.944;9.240;2024-03-06T15:47:38;7.10;99.90
6518;DHT22;3292;48.944;9.240;2024-03-06T15:50:08;7.10;99.90
6518;DHT22;3292;48.944;9.240;2024-03-06T15:52:36;7.10;99.90
6518;DHT22;3292;48.944;9.240;2024-03-06T15:55:04;7.10;99.90
6518;DHT22;3292;48.944;9.240;2024-03-06T15:57:31;7.10;99.90
6518;DHT22;3292;48.944;9.240;2024-03-06T15:59:58;7.10;99.90
6518;DHT22;3292;48.944;9.240;2024-03-06T16:02:26;7.10;99.90
6518;DHT22;3292;48.944;9.240;2024-03-06T16:04:53;7.20;99.90
6518;DHT22;3292;48.944;9.240;2024-03-06T16:07:20;7.20;99.90
6518;DHT22;3292;48.944;9.240;2024-03-06T16:09:48;7.20;99.90
6518;DHT22;3292;48.944;9.240;2024-03-06T16:12:16;7.20;99.90
6518;DHT22;3292;48.944;9.240;2024-03-06T16:14:43;7.20;99.90
6518;DHT22;3292;48.944;9.240;2024-03-06T16:17:10;7.20;99.90
6518;DHT22;3292;48.944;9.240;2024-03-06T16:19:39;7.20;99.90